aviador You're here:

LFBG Decoded Metar

COGNAC in FRANCE
Report Time2018-07-18 19:30:00
UTC Time2018-07-18 20:06:01
Flight Rules vfr VFR
Wind310° at 04 kt
W.Decomp.*RWY 26: 2.5 kt HW 3.1 kt RCW
RWY 23: 0.6 kt HW 4.0 kt RCW
W.Rank310° ranks 31
Current wind is below 310° avg. (6.5)
Visibility9999 m
Phenomena:N/A
Clouds:N/A
Expected CloudBase > 3,200 ft AGL from Temp-Dew spread
CeilingNone
Temp25°C (ISA +10)
Dew Point17°C (61% RH)
QNH1015 hPa
Density Alt1,473 ft
Elevation102 ft
Report Wrong Elevation
Raw Report
LFBG 181930Z AUTO 31004KT CAVOK 25/17 Q1015=

Extra information for LFBG:More info

Metar Taf Metar & Taf Last 4 Metars F.Rules Stats Wind Profile Meteogram Temp Stats Airport Information Weather charts Add Link Nearby VenuesMetar ALERT Operation Metar Decoded Social comments